sensor_id;sensor_type;location;lat;lon;timestamp;temperature;humidity
23471;DHT22;11908;50.806;4.424;2022-08-01T00:00:59;21.80;99.90
23471;DHT22;11908;50.806;4.424;2022-08-01T00:03:25;21.80;99.90
23471;DHT22;11908;50.806;4.424;2022-08-01T00:05:50;21.70;99.90
23471;DHT22;11908;50.806;4.424;2022-08-01T00:08:16;21.70;99.90
23471;DHT22;11908;50.806;4.424;2022-08-01T00:10:41;21.70;99.90
23471;DHT22;11908;50.806;4.424;2022-08-01T00:13:07;21.70;99.90
23471;DHT22;11908;50.806;4.424;2022-08-01T00:15:33;21.80;99.90
23471;DHT22;11908;50.806;4.424;2022-08-01T00:17:59;21.90;99.90
23471;DHT22;11908;50.806;4.424;2022-08-01T00:20:24;21.90;99.90
23471;DHT22;11908;50.806;4.424;2022-08-01T00:22:50;21.80;99.90
23471;DHT22;11908;50.806;4.424;2022-08-01T00:25:16;21.90;99.90
23471;DHT22;11908;50.806;4.424;2022-08-01T00:27:41;21.90;99.90
23471;DHT22;11908;50.806;4.424;2022-08-01T00:30:07;22.00;99.90
23471;DHT22;11908;50.806;4.424;2022-08-01T00:32:33;21.90;99.90
23471;DHT22;11908;50.806;4.424;2022-08-01T00:34:59;21.80;99.90
23471;DHT22;11908;50.806;4.424;2022-08-01T00:37:25;21.70;99.90
23471;DHT22;11908;50.806;4.424;2022-08-01T00:39:50;21.70;99.90
23471;DHT22;11908;50.806;4.424;2022-08-01T00:42:16;21.70;99.90
23471;DHT22;11908;50.806;4.424;2022-08-01T00:44:43;21.80;99.90
23471;DHT22;11908;50.806;4.424;2022-08-01T00:47:08;21.70;99.90
23471;DHT22;11908;50.806;4.424;2022-08-01T00:49:34;21.70;99.90
23471;DHT22;11908;50.806;4.424;2022-08-01T00:52:02;21.60;99.90
23471;DHT22;11908;50.806;4.424;2022-08-01T00:54:28;21.60;99.90
23471;DHT22;11908;50.806;4.424;2022-08-01T00:56:54;21.70;99.90
23471;DHT22;11908;50.806;4.424;2022-08-01T00:59:22;21.60;99.90
23471;DHT22;11908;50.806;4.424;2022-08-01T01:04:17;21.50;99.90
23471;DHT22;11908;50.806;4.424;2022-08-01T01:14:37;21.80;99.90
23471;DHT22;11908;50.806;4.424;2022-08-01T01:17:06;21.70;99.90
23471;DHT22;11908;50.806;4.424;2022-08-01T01:19:37;21.70;99.90
23471;DHT22;11908;50.806;4.424;2022-08-01T01:30:45;21.50;99.90
23471;DHT22;11908;50.806;4.424;2022-08-01T01:33:13;21.40;99.90
23471;DHT22;11908;50.806;4.424;2022-08-01T01:35:44;21.50;99.90
23471;DHT22;11908;50.806;4.424;2022-08-01T01:38:26;21.50;99.90
23471;DHT22;11908;50.806;4.424;2022-08-01T01:40:55;21.70;99.90
23471;DHT22;11908;50.806;4.424;2022-08-01T01:43:22;21.70;99.90
23471;DHT22;11908;50.806;4.424;2022-08-01T01:45:49;21.80;99.90
23471;DHT22;11908;50.806;4.424;2022-08-01T01:48:18;21.70;99.90
23471;DHT22;11908;50.806;4.424;2022-08-01T01:50:46;21.70;99.90
23471;DHT22;11908;50.806;4.424;2022-08-01T01:53:13;21.70;99.90
23471;DHT22;11908;50.806;4.424;2022-08-01T01:55:40;21.70;99.90
23471;DHT22;11908;50.806;4.424;2022-08-01T01:58:07;21.60;99.90
23471;DHT22;11908;50.806;4.424;2022-08-01T02:00:35;21.60;99.90
23471;DHT22;11908;50.806;4.424;2022-08-01T02:03:04;21.60;99.90
23471;DHT22;11908;50.806;4.424;2022-08-01T02:05:31;21.50;99.90
23471;DHT22;11908;50.806;4.424;2022-08-01T02:08:00;21.40;99.90
23471;DHT22;11908;50.806;4.424;2022-08-01T02:10:27;21.40;99.90
23471;DHT22;11908;50.806;4.424;2022-08-01T02:12:54;21.30;99.90
23471;DHT22;11908;50.806;4.424;2022-08-01T02:15:22;21.30;99.90
23471;DHT22;11908;50.806;4.424;2022-08-01T02:17:49;21.30;99.90
23471;DHT22;11908;50.806;4.424;2022-08-01T02:20:16;21.20;99.90
23471;DHT22;11908;50.806;4.424;2022-08-01T02:22:47;21.30;99.90
23471;DHT22;11908;50.806;4.424;2022-08-01T02:25:39;21.40;99.90
23471;DHT22;11908;50.806;4.424;2022-08-01T02:28:12;21.50;99.90
23471;DHT22;11908;50.806;4.424;2022-08-01T02:30:42;21.40;99.90
23471;DHT22;11908;50.806;4.424;2022-08-01T02:33:16;21.50;99.90
23471;DHT22;11908;50.806;4.424;2022-08-01T02:35:45;21.50;99.90
23471;DHT22;11908;50.806;4.424;2022-08-01T02:38:12;21.60;99.90
23471;DHT22;11908;50.806;4.424;2022-08-01T02:40:42;21.50;99.90
23471;DHT22;11908;50.806;4.424;2022-08-01T02:43:10;21.60;99.90
23471;DHT22;11908;50.806;4.424;2022-08-01T02:45:41;21.50;99.90
23471;DHT22;11908;50.806;4.424;2022-08-01T02:48:13;21.40;99.90
23471;DHT22;11908;50.806;4.424;2022-08-01T02:50:42;21.30;99.90
23471;DHT22;11908;50.806;4.424;2022-08-01T02:53:09;21.40;99.90
23471;DHT22;11908;50.806;4.424;2022-08-01T02:55:38;21.50;99.90
23471;DHT22;11908;50.806;4.424;2022-08-01T02:58:04;21.60;99.90
23471;DHT22;11908;50.806;4.424;2022-08-01T03:00:32;21.70;99.90
23471;DHT22;11908;50.806;4.424;2022-08-01T03:02:59;21.70;99.90
23471;DHT22;11908;50.806;4.424;2022-08-01T03:05:27;21.70;99.90
23471;DHT22;11908;50.806;4.424;2022-08-01T03:07:55;21.50;99.90
23471;DHT22;11908;50.806;4.424;2022-08-01T03:10:23;21.40;99.90
23471;DHT22;11908;50.806;4.424;2022-08-01T03:12:50;21.40;99.90
23471;DHT22;11908;50.806;4.424;2022-08-01T03:15:17;21.30;99.90
23471;DHT22;11908;50.806;4.424;2022-08-01T03:17:45;21.30;99.90
23471;DHT22;11908;50.806;4.424;2022-08-01T03:20:14;21.40;99.90
23471;DHT22;11908;50.806;4.424;2022-08-01T03:22:42;21.30;99.90
23471;DHT22;11908;50.806;4.424;2022-08-01T03:25:10;21.30;99.90
23471;DHT22;11908;50.806;4.424;2022-08-01T03:27:36;21.10;99.90
23471;DHT22;11908;50.806;4.424;2022-08-01T03:30:04;21.10;99.90
23471;DHT22;11908;50.806;4.424;2022-08-01T03:32:30;21.20;99.90
23471;DHT22;11908;50.806;4.424;2022-08-01T03:34:57;21.20;99.90
23471;DHT22;11908;50.806;4.424;2022-08-01T03:37:29;21.10;99.90
23471;DHT22;11908;50.806;4.424;2022-08-01T03:42:32;21.10;99.90
23471;DHT22;11908;50.806;4.424;2022-08-01T03:45:03;21.10;99.90
23471;DHT22;11908;50.806;4.424;2022-08-01T03:47:32;21.20;99.90
23471;DHT22;11908;50.806;4.424;2022-08-01T03:50:01;21.30;99.90
23471;DHT22;11908;50.806;4.424;2022-08-01T03:52:28;21.40;99.90
23471;DHT22;11908;50.806;4.424;2022-08-01T03:54:55;21.30;99.90
23471;DHT22;11908;50.806;4.424;2022-08-01T03:57:22;21.20;99.90
23471;DHT22;11908;50.806;4.424;2022-08-01T03:59:49;21.20;99.90
23471;DHT22;11908;50.806;4.424;2022-08-01T04:02:15;21.20;99.90
23471;DHT22;11908;50.806;4.424;2022-08-01T04:04:41;21.20;99.90
23471;DHT22;11908;50.806;4.424;2022-08-01T04:07:28;21.10;99.90
23471;DHT22;11908;50.806;4.424;2022-08-01T04:09:54;21.10;99.90
23471;DHT22;11908;50.806;4.424;2022-08-01T04:12:20;21.10;99.90
23471;DHT22;11908;50.806;4.424;2022-08-01T04:14:46;21.20;99.90
23471;DHT22;11908;50.806;4.424;2022-08-01T04:17:13;21.20;99.90
23471;DHT22;11908;50.806;4.424;2022-08-01T04:19:39;21.10;99.90
23471;DHT22;11908;50.806;4.424;2022-08-01T04:22:05;21.10;99.90
23471;DHT22;11908;50.806;4.424;2022-08-01T04:24:33;21.00;99.90
23471;DHT22;11908;50.806;4.424;2022-08-01T04:27:01;21.00;99.90
23471;DHT22;11908;50.806;4.424;2022-08-01T04:29:27;21.00;99.90
23471;DHT22;11908;50.806;4.424;2022-08-01T04:31:56;21.00;99.90
23471;DHT22;11908;50.806;4.424;2022-08-01T04:34:24;20.80;99.90
23471;DHT22;11908;50.806;4.424;2022-08-01T04:36:52;20.80;99.90
23471;DHT22;11908;50.806;4.424;2022-08-01T04:39:20;20.90;99.90
23471;DHT22;11908;50.806;4.424;2022-08-01T04:41:49;20.90;99.90
23471;DHT22;11908;50.806;4.424;2022-08-01T04:44:15;20.90;99.90
23471;DHT22;11908;50.806;4.424;2022-08-01T04:46:42;20.80;99.90
23471;DHT22;11908;50.806;4.424;2022-08-01T04:49:10;20.80;99.90
23471;DHT22;11908;50.806;4.424;2022-08-01T04:51:48;20.90;99.90
23471;DHT22;11908;50.806;4.424;2022-08-01T04:54:14;20.80;99.90
23471;DHT22;11908;50.806;4.424;2022-08-01T04:56:40;20.90;99.90
23471;DHT22;11908;50.806;4.424;2022-08-01T04:59:07;20.80;99.90
23471;DHT22;11908;50.806;4.424;2022-08-01T05:01:51;20.80;99.90
23471;DHT22;11908;50.806;4.424;2022-08-01T05:04:16;20.80;99.90
23471;DHT22;11908;50.806;4.424;2022-08-01T05:06:42;20.90;99.90
23471;DHT22;11908;50.806;4.424;2022-08-01T05:09:07;20.90;99.90
23471;DHT22;11908;50.806;4.424;2022-08-01T05:11:33;20.90;99.90
23471;DHT22;11908;50.806;4.424;2022-08-01T05:13:59;20.90;99.90
23471;DHT22;11908;50.806;4.424;2022-08-01T05:16:24;20.80;99.90
23471;DHT22;11908;50.806;4.424;2022-08-01T05:18:50;20.90;99.90
23471;DHT22;11908;50.806;4.424;2022-08-01T05:21:16;20.80;99.90
23471;DHT22;11908;50.806;4.424;2022-08-01T05:23:42;20.70;99.90
23471;DHT22;11908;50.806;4.424;2022-08-01T05:26:08;20.80;99.90
23471;DHT22;11908;50.806;4.424;2022-08-01T05:28:33;20.70;99.90
23471;DHT22;11908;50.806;4.424;2022-08-01T05:30:59;20.80;99.90
23471;DHT22;11908;50.806;4.424;2022-08-01T05:33:25;20.80;99.90
23471;DHT22;11908;50.806;4.424;2022-08-01T05:35:50;20.90;99.90
23471;DHT22;11908;50.806;4.424;2022-08-01T05:38:16;20.80;99.90
23471;DHT22;11908;50.806;4.424;2022-08-01T05:40:42;20.80;99.90
23471;DHT22;11908;50.806;4.424;2022-08-01T05:43:08;20.80;99.90
23471;DHT22;11908;50.806;4.424;2022-08-01T05:45:33;20.80;99.90
23471;DHT22;11908;50.806;4.424;2022-08-01T05:47:59;20.90;99.90
23471;DHT22;11908;50.806;4.424;2022-08-01T05:50:24;20.90;99.90
23471;DHT22;11908;50.806;4.424;2022-08-01T05:52:50;20.90;99.90
23471;DHT22;11908;50.806;4.424;2022-08-01T05:55:16;20.90;99.90
23471;DHT22;11908;50.806;4.424;2022-08-01T05:57:41;20.90;99.90
23471;DHT22;11908;50.806;4.424;2022-08-01T06:00:08;20.90;99.90
23471;DHT22;11908;50.806;4.424;2022-08-01T06:02:33;21.00;99.90
23471;DHT22;11908;50.806;4.424;2022-08-01T06:04:59;21.00;99.90
23471;DHT22;11908;50.806;4.424;2022-08-01T06:07:25;21.00;99.90
23471;DHT22;11908;50.806;4.424;2022-08-01T06:09:50;21.10;99.90
23471;DHT22;11908;50.806;4.424;2022-08-01T06:12:16;21.20;99.90
23471;DHT22;11908;50.806;4.424;2022-08-01T06:14:42;21.20;99.90
23471;DHT22;11908;50.806;4.424;2022-08-01T06:17:07;21.30;99.90
23471;DHT22;11908;50.806;4.424;2022-08-01T06:19:33;21.40;99.90
23471;DHT22;11908;50.806;4.424;2022-08-01T06:21:59;21.40;99.90
23471;DHT22;11908;50.806;4.424;2022-08-01T06:24:24;21.40;99.90
23471;DHT22;11908;50.806;4.424;2022-08-01T06:26:50;21.50;99.90
23471;DHT22;11908;50.806;4.424;2022-08-01T06:29:15;21.60;99.90
23471;DHT22;11908;50.806;4.424;2022-08-01T06:31:41;21.70;99.90
23471;DHT22;11908;50.806;4.424;2022-08-01T06:34:07;21.70;99.90
23471;DHT22;11908;50.806;4.424;2022-08-01T06:36:33;21.80;99.90
23471;DHT22;11908;50.806;4.424;2022-08-01T06:38:58;21.90;99.90
23471;DHT22;11908;50.806;4.424;2022-08-01T06:41:24;22.00;99.90
23471;DHT22;11908;50.806;4.424;2022-08-01T06:43:50;22.10;99.90
23471;DHT22;11908;50.806;4.424;2022-08-01T06:46:15;22.10;99.90
23471;DHT22;11908;50.806;4.424;2022-08-01T06:48:41;22.20;99.90
23471;DHT22;11908;50.806;4.424;2022-08-01T06:51:08;22.30;99.90
23471;DHT22;11908;50.806;4.424;2022-08-01T06:53:37;22.40;99.90
23471;DHT22;11908;50.806;4.424;2022-08-01T06:56:04;22.50;99.90
23471;DHT22;11908;50.806;4.424;2022-08-01T06:58:30;22.50;99.90
23471;DHT22;11908;50.806;4.424;2022-08-01T07:00:56;22.70;99.90
23471;DHT22;11908;50.806;4.424;2022-08-01T07:03:21;22.80;99.90
23471;DHT22;11908;50.806;4.424;2022-08-01T07:05:47;23.00;99.90
23471;DHT22;11908;50.806;4.424;2022-08-01T07:08:13;23.10;99.90
23471;DHT22;11908;50.806;4.424;2022-08-01T07:10:39;23.20;99.90
23471;DHT22;11908;50.806;4.424;2022-08-01T07:13:05;23.30;99.90
23471;DHT22;11908;50.806;4.424;2022-08-01T07:15:30;23.40;99.90
23471;DHT22;11908;50.806;4.424;2022-08-01T07:17:56;23.50;99.90
23471;DHT22;11908;50.806;4.424;2022-08-01T07:20:23;23.70;99.90
23471;DHT22;11908;50.806;4.424;2022-08-01T07:22:49;23.50;99.90
23471;DHT22;11908;50.806;4.424;2022-08-01T07:25:14;23.60;99.90
23471;DHT22;11908;50.806;4.424;2022-08-01T07:27:40;23.70;99.90
23471;DHT22;11908;50.806;4.424;2022-08-01T07:30:06;23.80;99.90
23471;DHT22;11908;50.806;4.424;2022-08-01T07:32:32;23.80;99.90
23471;DHT22;11908;50.806;4.424;2022-08-01T07:35:00;23.90;99.90
23471;DHT22;11908;50.806;4.424;2022-08-01T07:37:26;24.00;99.90
23471;DHT22;11908;50.806;4.424;2022-08-01T07:39:51;24.30;99.90
23471;DHT22;11908;50.806;4.424;2022-08-01T07:42:17;24.40;99.90
23471;DHT22;11908;50.806;4.424;2022-08-01T07:44:43;24.70;99.90
23471;DHT22;11908;50.806;4.424;2022-08-01T07:47:08;25.00;99.90
23471;DHT22;11908;50.806;4.424;2022-08-01T07:49:34;25.50;99.90
23471;DHT22;11908;50.806;4.424;2022-08-01T07:52:00;25.70;99.90
23471;DHT22;11908;50.806;4.424;2022-08-01T07:54:26;25.70;99.90
23471;DHT22;11908;50.806;4.424;2022-08-01T07:56:53;25.40;99.90
23471;DHT22;11908;50.806;4.424;2022-08-01T07:59:19;25.40;99.90
23471;DHT22;11908;50.806;4.424;2022-08-01T08:01:49;25.30;99.90
23471;DHT22;11908;50.806;4.424;2022-08-01T08:04:16;25.20;99.90
23471;DHT22;11908;50.806;4.424;2022-08-01T08:06:41;25.20;99.90
23471;DHT22;11908;50.806;4.424;2022-08-01T08:09:07;25.20;99.90
23471;DHT22;11908;50.806;4.424;2022-08-01T08:11:32;25.30;99.90
23471;DHT22;11908;50.806;4.424;2022-08-01T08:13:58;25.30;99.90
23471;DHT22;11908;50.806;4.424;2022-08-01T08:16:24;25.10;99.90
23471;DHT22;11908;50.806;4.424;2022-08-01T08:18:50;25.10;99.90
23471;DHT22;11908;50.806;4.424;2022-08-01T08:21:15;25.20;99.90
23471;DHT22;11908;50.806;4.424;2022-08-01T08:23:41;25.30;99.90
23471;DHT22;11908;50.806;4.424;2022-08-01T08:26:25;25.30;99.90
23471;DHT22;11908;50.806;4.424;2022-08-01T08:28:52;25.50;99.90
23471;DHT22;11908;50.806;4.424;2022-08-01T08:31:17;26.00;99.90
23471;DHT22;11908;50.806;4.424;2022-08-01T08:33:43;26.80;99.90
23471;DHT22;11908;50.806;4.424;2022-08-01T08:36:08;27.60;99.90
23471;DHT22;11908;50.806;4.424;2022-08-01T08:38:36;27.40;99.90
23471;DHT22;11908;50.806;4.424;2022-08-01T08:41:02;27.80;99.90
23471;DHT22;11908;50.806;4.424;2022-08-01T08:43:28;27.70;99.90
23471;DHT22;11908;50.806;4.424;2022-08-01T08:45:53;27.80;99.90
23471;DHT22;11908;50.806;4.424;2022-08-01T08:48:20;28.00;99.90
23471;DHT22;11908;50.806;4.424;2022-08-01T08:50:48;28.10;99.90
23471;DHT22;11908;50.806;4.424;2022-08-01T08:53:14;28.10;99.90
23471;DHT22;11908;50.806;4.424;2022-08-01T08:55:42;27.60;99.90
23471;DHT22;11908;50.806;4.424;2022-08-01T08:58:12;27.40;99.90
23471;DHT22;11908;50.806;4.424;2022-08-01T09:00:41;27.40;99.90
23471;DHT22;11908;50.806;4.424;2022-08-01T09:03:07;27.10;99.90
23471;DHT22;11908;50.806;4.424;2022-08-01T09:05:33;27.10;99.90
23471;DHT22;11908;50.806;4.424;2022-08-01T09:07:59;26.90;99.90
23471;DHT22;11908;50.806;4.424;2022-08-01T09:10:25;26.50;99.90
23471;DHT22;11908;50.806;4.424;2022-08-01T09:13:11;26.50;99.90
23471;DHT22;11908;50.806;4.424;2022-08-01T09:15:39;26.90;99.90
23471;DHT22;11908;50.806;4.424;2022-08-01T09:18:05;27.40;99.90
23471;DHT22;11908;50.806;4.424;2022-08-01T09:20:31;27.70;99.90
23471;DHT22;11908;50.806;4.424;2022-08-01T09:22:57;28.70;99.90
23471;DHT22;11908;50.806;4.424;2022-08-01T09:25:23;29.90;99.90
23471;DHT22;11908;50.806;4.424;2022-08-01T09:28:02;30.40;99.90
23471;DHT22;11908;50.806;4.424;2022-08-01T09:30:36;30.60;99.90
23471;DHT22;11908;50.806;4.424;2022-08-01T09:33:03;30.70;99.90
23471;DHT22;11908;50.806;4.424;2022-08-01T09:35:30;31.00;99.90
23471;DHT22;11908;50.806;4.424;2022-08-01T09:38:16;31.00;99.90
23471;DHT22;11908;50.806;4.424;2022-08-01T09:43:18;32.60;99.90
23471;DHT22;11908;50.806;4.424;2022-08-01T09:45:44;32.50;99.90
23471;DHT22;11908;50.806;4.424;2022-08-01T09:48:10;32.20;99.90
23471;DHT22;11908;50.806;4.424;2022-08-01T09:50:42;31.50;99.90
23471;DHT22;11908;50.806;4.424;2022-08-01T09:53:09;31.00;99.90
23471;DHT22;11908;50.806;4.424;2022-08-01T09:55:35;30.60;99.90
23471;DHT22;11908;50.806;4.424;2022-08-01T09:58:01;30.00;99.90
23471;DHT22;11908;50.806;4.424;2022-08-01T10:00:30;29.50;99.90
23471;DHT22;11908;50.806;4.424;2022-08-01T10:02:57;28.80;99.90
23471;DHT22;11908;50.806;4.424;2022-08-01T10:05:33;28.40;99.90
23471;DHT22;11908;50.806;4.424;2022-08-01T10:08:04;28.60;99.90
23471;DHT22;11908;50.806;4.424;2022-08-01T10:10:31;28.30;99.90
23471;DHT22;11908;50.806;4.424;2022-08-01T10:12:58;28.30;99.90
23471;DHT22;11908;50.806;4.424;2022-08-01T10:15:25;28.30;99.90
23471;DHT22;11908;50.806;4.424;2022-08-01T10:17:57;28.50;99.90
23471;DHT22;11908;50.806;4.424;2022-08-01T10:20:33;28.60;99.90
23471;DHT22;11908;50.806;4.424;2022-08-01T10:23:02;28.80;99.90
23471;DHT22;11908;50.806;4.424;2022-08-01T10:25:29;29.10;99.90
23471;DHT22;11908;50.806;4.424;2022-08-01T10:27:58;29.80;99.90
23471;DHT22;11908;50.806;4.424;2022-08-01T10:30:25;30.40;99.90
23471;DHT22;11908;50.806;4.424;2022-08-01T10:32:51;30.70;99.90
23471;DHT22;11908;50.806;4.424;2022-08-01T10:35:19;31.10;99.90
23471;DHT22;11908;50.806;4.424;2022-08-01T10:37:46;31.50;99.90
23471;DHT22;11908;50.806;4.424;2022-08-01T10:40:15;31.80;99.90
23471;DHT22;11908;50.806;4.424;2022-08-01T10:42:45;32.10;99.90
23471;DHT22;11908;50.806;4.424;2022-08-01T10:45:13;32.20;99.90
23471;DHT22;11908;50.806;4.424;2022-08-01T10:50:49;31.40;99.90
23471;DHT22;11908;50.806;4.424;2022-08-01T10:53:15;31.30;99.90
23471;DHT22;11908;50.806;4.424;2022-08-01T10:56:02;31.50;99.90
23471;DHT22;11908;50.806;4.424;2022-08-01T10:58:39;31.60;99.90
23471;DHT22;11908;50.806;4.424;2022-08-01T11:07:11;31.10;99.90
23471;DHT22;11908;50.806;4.424;2022-08-01T11:09:40;31.00;99.90
23471;DHT22;11908;50.806;4.424;2022-08-01T11:12:11;30.80;99.90
23471;DHT22;11908;50.806;4.424;2022-08-01T11:17:35;30.70;99.90
23471;DHT22;11908;50.806;4.424;2022-08-01T11:22:30;31.00;99.90
23471;DHT22;11908;50.806;4.424;2022-08-01T11:24:56;31.20;99.90
23471;DHT22;11908;50.806;4.424;2022-08-01T11:27:30;31.10;99.90
23471;DHT22;11908;50.806;4.424;2022-08-01T11:32:45;32.30;99.40
23471;DHT22;11908;50.806;4.424;2022-08-01T11:35:11;32.90;98.60
23471;DHT22;11908;50.806;4.424;2022-08-01T11:37:37;32.70;97.90
23471;DHT22;11908;50.806;4.424;2022-08-01T11:40:27;32.80;97.50
23471;DHT22;11908;50.806;4.424;2022-08-01T11:45:55;33.30;96.90
23471;DHT22;11908;50.806;4.424;2022-08-01T11:48:25;33.10;95.90
23471;DHT22;11908;50.806;4.424;2022-08-01T11:50:52;32.60;96.70
23471;DHT22;11908;50.806;4.424;2022-08-01T11:53:19;32.30;96.20
23471;DHT22;11908;50.806;4.424;2022-08-01T11:55:54;31.90;96.80
23471;DHT22;11908;50.806;4.424;2022-08-01T11:58:24;31.30;97.20
23471;DHT22;11908;50.806;4.424;2022-08-01T12:00:53;30.90;97.70
23471;DHT22;11908;50.806;4.424;2022-08-01T12:03:31;30.80;98.60
23471;DHT22;11908;50.806;4.424;2022-08-01T12:05:58;31.20;97.60
23471;DHT22;11908;50.806;4.424;2022-08-01T12:08:33;31.20;96.40
23471;DHT22;11908;50.806;4.424;2022-08-01T12:11:02;30.80;95.90
23471;DHT22;11908;50.806;4.424;2022-08-01T12:13:37;30.60;97.30
23471;DHT22;11908;50.806;4.424;2022-08-01T12:16:08;30.30;97.50
23471;DHT22;11908;50.806;4.424;2022-08-01T12:18:41;30.50;98.00
23471;DHT22;11908;50.806;4.424;2022-08-01T12:21:07;30.20;98.40
23471;DHT22;11908;50.806;4.424;2022-08-01T12:23:33;30.30;98.00
23471;DHT22;11908;50.806;4.424;2022-08-01T12:25:58;30.50;97.70
23471;DHT22;11908;50.806;4.424;2022-08-01T12:28:26;30.50;98.10
23471;DHT22;11908;50.806;4.424;2022-08-01T12:30:52;30.90;98.40
23471;DHT22;11908;50.806;4.424;2022-08-01T12:33:19;30.60;97.10
23471;DHT22;11908;50.806;4.424;2022-08-01T12:35:46;30.70;96.70
23471;DHT22;11908;50.806;4.424;2022-08-01T12:38:20;30.70;96.60
23471;DHT22;11908;50.806;4.424;2022-08-01T12:40:48;30.90;96.10
23471;DHT22;11908;50.806;4.424;2022-08-01T12:43:18;30.80;96.30
23471;DHT22;11908;50.806;4.424;2022-08-01T12:45:46;30.70;96.30
23471;DHT22;11908;50.806;4.424;2022-08-01T12:48:14;30.70;96.50
23471;DHT22;11908;50.806;4.424;2022-08-01T12:50:51;30.90;96.60
23471;DHT22;11908;50.806;4.424;2022-08-01T12:53:18;31.00;96.70
23471;DHT22;11908;50.806;4.424;2022-08-01T12:55:55;31.40;95.80
23471;DHT22;11908;50.806;4.424;2022-08-01T12:58:21;31.60;95.40
23471;DHT22;11908;50.806;4.424;2022-08-01T13:00:49;31.70;96.00
23471;DHT22;11908;50.806;4.424;2022-08-01T13:03:17;32.00;95.30
23471;DHT22;11908;50.806;4.424;2022-08-01T13:05:53;31.80;95.00
23471;DHT22;11908;50.806;4.424;2022-08-01T13:08:24;31.50;95.10
23471;DHT22;11908;50.806;4.424;2022-08-01T13:10:53;30.60;95.80
23471;DHT22;11908;50.806;4.424;2022-08-01T13:13:34;30.00;96.60
23471;DHT22;11908;50.806;4.424;2022-08-01T13:16:06;29.60;96.90
23471;DHT22;11908;50.806;4.424;2022-08-01T13:18:34;28.90;96.90
23471;DHT22;11908;50.806;4.424;2022-08-01T13:21:20;28.50;98.20
23471;DHT22;11908;50.806;4.424;2022-08-01T13:24:11;28.40;99.00
23471;DHT22;11908;50.806;4.424;2022-08-01T13:29:07;28.60;98.80
23471;DHT22;11908;50.806;4.424;2022-08-01T13:31:34;28.50;99.30
23471;DHT22;11908;50.806;4.424;2022-08-01T13:34:00;28.40;99.50
23471;DHT22;11908;50.806;4.424;2022-08-01T13:36:26;28.40;99.80
23471;DHT22;11908;50.806;4.424;2022-08-01T13:38:56;28.10;99.90
23471;DHT22;11908;50.806;4.424;2022-08-01T13:41:41;27.80;99.90
23471;DHT22;11908;50.806;4.424;2022-08-01T13:44:07;27.60;99.90
23471;DHT22;11908;50.806;4.424;2022-08-01T13:46:35;27.60;99.90
23471;DHT22;11908;50.806;4.424;2022-08-01T13:49:02;27.50;99.90
23471;DHT22;11908;50.806;4.424;2022-08-01T13:51:31;27.40;99.90
23471;DHT22;11908;50.806;4.424;2022-08-01T13:53:57;27.50;99.90
23471;DHT22;11908;50.806;4.424;2022-08-01T13:56:23;27.50;99.90
23471;DHT22;11908;50.806;4.424;2022-08-01T13:58:50;27.80;99.90
23471;DHT22;11908;50.806;4.424;2022-08-01T14:01:16;28.20;99.90
23471;DHT22;11908;50.806;4.424;2022-08-01T14:03:42;28.40;99.90
23471;DHT22;11908;50.806;4.424;2022-08-01T14:06:08;28.50;99.90
23471;DHT22;11908;50.806;4.424;2022-08-01T14:08:33;28.50;99.20
23471;DHT22;11908;50.806;4.424;2022-08-01T14:10:59;28.60;99.50
23471;DHT22;11908;50.806;4.424;2022-08-01T14:13:25;28.40;99.20
23471;DHT22;11908;50.806;4.424;2022-08-01T14:15:51;28.10;99.20
23471;DHT22;11908;50.806;4.424;2022-08-01T14:18:18;27.80;99.50
23471;DHT22;11908;50.806;4.424;2022-08-01T14:20:44;27.70;99.90
23471;DHT22;11908;50.806;4.424;2022-08-01T14:23:10;27.80;99.90
23471;DHT22;11908;50.806;4.424;2022-08-01T14:25:39;27.90;99.90
23471;DHT22;11908;50.806;4.424;2022-08-01T14:28:06;28.10;99.30
23471;DHT22;11908;50.806;4.424;2022-08-01T14:30:32;28.40;99.30
23471;DHT22;11908;50.806;4.424;2022-08-01T14:32:58;28.80;99.10
23471;DHT22;11908;50.806;4.424;2022-08-01T14:35:23;29.20;98.40
23471;DHT22;11908;50.806;4.424;2022-08-01T14:37:49;29.40;97.20
23471;DHT22;11908;50.806;4.424;2022-08-01T14:40:15;29.40;96.90
23471;DHT22;11908;50.806;4.424;2022-08-01T14:42:41;29.40;96.40
23471;DHT22;11908;50.806;4.424;2022-08-01T14:45:07;29.30;96.80
23471;DHT22;11908;50.806;4.424;2022-08-01T14:47:39;29.20;96.40
23471;DHT22;11908;50.806;4.424;2022-08-01T14:50:08;29.30;96.80
23471;DHT22;11908;50.806;4.424;2022-08-01T14:52:35;29.00;96.40
23471;DHT22;11908;50.806;4.424;2022-08-01T14:55:01;29.00;96.60
23471;DHT22;11908;50.806;4.424;2022-08-01T14:57:27;29.00;96.70
23471;DHT22;11908;50.806;4.424;2022-08-01T14:59:52;28.60;96.50
23471;DHT22;11908;50.806;4.424;2022-08-01T15:02:18;28.30;97.00
23471;DHT22;11908;50.806;4.424;2022-08-01T15:04:47;28.20;97.40
23471;DHT22;11908;50.806;4.424;2022-08-01T15:07:13;28.10;97.90
23471;DHT22;11908;50.806;4.424;2022-08-01T15:09:39;28.10;98.70
23471;DHT22;11908;50.806;4.424;2022-08-01T15:12:05;28.00;98.10
23471;DHT22;11908;50.806;4.424;2022-08-01T15:14:31;28.10;98.10
23471;DHT22;11908;50.806;4.424;2022-08-01T15:17:23;28.30;98.50
23471;DHT22;11908;50.806;4.424;2022-08-01T15:19:55;28.30;97.60
23471;DHT22;11908;50.806;4.424;2022-08-01T15:22:22;28.60;97.90
23471;DHT22;11908;50.806;4.424;2022-08-01T15:24:48;28.70;97.80
23471;DHT22;11908;50.806;4.424;2022-08-01T15:27:15;28.50;97.30
23471;DHT22;11908;50.806;4.424;2022-08-01T15:29:40;28.40;97.00
23471;DHT22;11908;50.806;4.424;2022-08-01T15:32:07;28.30;96.50
23471;DHT22;11908;50.806;4.424;2022-08-01T15:34:34;28.20;97.10
23471;DHT22;11908;50.806;4.424;2022-08-01T15:37:01;28.10;96.30
23471;DHT22;11908;50.806;4.424;2022-08-01T15:39:27;28.20;96.80
23471;DHT22;11908;50.806;4.424;2022-08-01T15:41:53;28.20;98.30
23471;DHT22;11908;50.806;4.424;2022-08-01T15:44:19;28.20;98.10
23471;DHT22;11908;50.806;4.424;2022-08-01T15:46:47;28.30;98.30
23471;DHT22;11908;50.806;4.424;2022-08-01T15:49:13;28.30;97.60
23471;DHT22;11908;50.806;4.424;2022-08-01T15:51:40;28.30;97.90
23471;DHT22;11908;50.806;4.424;2022-08-01T15:54:09;28.40;97.00
23471;DHT22;11908;50.806;4.424;2022-08-01T15:56:36;28.40;96.50
23471;DHT22;11908;50.806;4.424;2022-08-01T15:59:02;28.10;96.60
23471;DHT22;11908;50.806;4.424;2022-08-01T16:01:28;27.90;97.70
23471;DHT22;11908;50.806;4.424;2022-08-01T16:03:55;27.80;96.60
23471;DHT22;11908;50.806;4.424;2022-08-01T16:06:21;27.60;97.10
23471;DHT22;11908;50.806;4.424;2022-08-01T16:08:47;27.50;97.60
23471;DHT22;11908;50.806;4.424;2022-08-01T16:11:13;27.40;98.40
23471;DHT22;11908;50.806;4.424;2022-08-01T16:13:38;27.40;98.10
23471;DHT22;11908;50.806;4.424;2022-08-01T16:16:07;27.40;98.50
23471;DHT22;11908;50.806;4.424;2022-08-01T16:18:33;27.40;97.90
23471;DHT22;11908;50.806;4.424;2022-08-01T16:20:59;27.40;97.40